Sunset, Arizona
Current Conditions -  °F | °C
As of 4:51 AM on Thursday 30 Oct 2014 (Local Time) from KSAD Reporting Station
Clear Clear  
Wind Chill: 50°   Ceiling: Unl
Heat Index: 50°   Visibility: 10mi
Dew Point: 38°   Wind: 0mph
Humidity: 63%   Direction: NA
Pressure: 30.12"   Gusts: NA
Location:  32.5598°N, 110.08°W
Report Text: KSAD 301151Z AUTO 00000KT 10SM CLR 10/03 A3012 RMK AO2 SLP165 T01000033 10150 20100 53001
Loading
Personal Weather Stations






























Interactive Weather Map
Tropical Storm Tracking
New forecast layout! Learn more

10-Day Weather Forecast

Advertisements
Track Severe Weather on mobile